sensor_id;sensor_type;location;lat;lon;timestamp;temperature;humidity
42841;DHT22;28491;46.898;7.660;2022-09-09T00:01:42;14.60;71.00
42841;DHT22;28491;46.898;7.660;2022-09-09T00:04:42;14.60;71.60
42841;DHT22;28491;46.898;7.660;2022-09-09T00:07:19;14.40;71.50
42841;DHT22;28491;46.898;7.660;2022-09-09T00:12:38;14.20;72.60
42841;DHT22;28491;46.898;7.660;2022-09-09T00:15:19;14.20;72.30
42841;DHT22;28491;46.898;7.660;2022-09-09T00:17:47;14.30;72.30
42841;DHT22;28491;46.898;7.660;2022-09-09T00:23:12;14.20;72.80
42841;DHT22;28491;46.898;7.660;2022-09-09T00:25:45;14.20;72.70
42841;DHT22;28491;46.898;7.660;2022-09-09T00:28:24;14.20;72.40
42841;DHT22;28491;46.898;7.660;2022-09-09T00:30:50;14.20;72.80
42841;DHT22;28491;46.898;7.660;2022-09-09T00:33:19;14.00;73.10
42841;DHT22;28491;46.898;7.660;2022-09-09T00:35:53;14.00;73.30
42841;DHT22;28491;46.898;7.660;2022-09-09T00:38:45;14.00;73.00
42841;DHT22;28491;46.898;7.660;2022-09-09T00:43:57;13.80;73.60
42841;DHT22;28491;46.898;7.660;2022-09-09T00:46:46;13.80;73.70
42841;DHT22;28491;46.898;7.660;2022-09-09T00:49:35;13.70;73.90
42841;DHT22;28491;46.898;7.660;2022-09-09T00:57:35;13.50;76.00
42841;DHT22;28491;46.898;7.660;2022-09-09T01:00:21;13.60;75.00
42841;DHT22;28491;46.898;7.660;2022-09-09T01:03:15;13.70;74.40
42841;DHT22;28491;46.898;7.660;2022-09-09T01:11:01;13.40;75.40
42841;DHT22;28491;46.898;7.660;2022-09-09T01:13:33;13.50;75.80
42841;DHT22;28491;46.898;7.660;2022-09-09T01:16:01;13.50;75.50
42841;DHT22;28491;46.898;7.660;2022-09-09T01:18:35;13.40;75.10
42841;DHT22;28491;46.898;7.660;2022-09-09T01:26:14;13.60;75.40
42841;DHT22;28491;46.898;7.660;2022-09-09T01:28:47;13.70;75.00
42841;DHT22;28491;46.898;7.660;2022-09-09T01:31:18;13.70;74.80
42841;DHT22;28491;46.898;7.660;2022-09-09T01:33:44;13.70;74.60
42841;DHT22;28491;46.898;7.660;2022-09-09T01:36:20;13.80;74.90
42841;DHT22;28491;46.898;7.660;2022-09-09T01:38:46;13.80;74.60
42841;DHT22;28491;46.898;7.660;2022-09-09T01:41:12;13.80;74.50
42841;DHT22;28491;46.898;7.660;2022-09-09T01:43:38;13.90;74.20
42841;DHT22;28491;46.898;7.660;2022-09-09T01:46:03;14.00;74.60
42841;DHT22;28491;46.898;7.660;2022-09-09T01:48:29;13.90;73.60
42841;DHT22;28491;46.898;7.660;2022-09-09T01:50:55;13.90;74.50
42841;DHT22;28491;46.898;7.660;2022-09-09T01:53:21;14.00;74.20
42841;DHT22;28491;46.898;7.660;2022-09-09T01:55:59;14.10;74.20
42841;DHT22;28491;46.898;7.660;2022-09-09T01:58:46;14.10;73.60
42841;DHT22;28491;46.898;7.660;2022-09-09T02:04:03;14.20;73.80
42841;DHT22;28491;46.898;7.660;2022-09-09T02:06:40;14.30;73.90
42841;DHT22;28491;46.898;7.660;2022-09-09T02:09:07;14.30;72.90
42841;DHT22;28491;46.898;7.660;2022-09-09T02:11:35;14.30;73.30
42841;DHT22;28491;46.898;7.660;2022-09-09T02:14:04;14.30;73.20
42841;DHT22;28491;46.898;7.660;2022-09-09T02:16:41;14.40;75.20
42841;DHT22;28491;46.898;7.660;2022-09-09T02:19:21;14.20;74.50
42841;DHT22;28491;46.898;7.660;2022-09-09T02:21:56;14.20;77.20
42841;DHT22;28491;46.898;7.660;2022-09-09T02:24:23;14.10;79.40
42841;DHT22;28491;46.898;7.660;2022-09-09T02:26:52;14.10;79.70
42841;DHT22;28491;46.898;7.660;2022-09-09T02:29:24;14.10;78.60
42841;DHT22;28491;46.898;7.660;2022-09-09T02:31:51;14.10;78.20
42841;DHT22;28491;46.898;7.660;2022-09-09T02:34:20;14.00;80.20
42841;DHT22;28491;46.898;7.660;2022-09-09T02:36:50;14.00;80.60
42841;DHT22;28491;46.898;7.660;2022-09-09T02:39:18;14.00;81.50
42841;DHT22;28491;46.898;7.660;2022-09-09T02:41:44;14.00;81.90
42841;DHT22;28491;46.898;7.660;2022-09-09T02:44:17;13.90;82.40
42841;DHT22;28491;46.898;7.660;2022-09-09T02:49:28;14.00;87.20
42841;DHT22;28491;46.898;7.660;2022-09-09T02:52:05;14.00;88.40
42841;DHT22;28491;46.898;7.660;2022-09-09T02:54:38;13.90;90.60
42841;DHT22;28491;46.898;7.660;2022-09-09T02:57:06;13.90;90.70
42841;DHT22;28491;46.898;7.660;2022-09-09T02:59:34;13.90;92.40
42841;DHT22;28491;46.898;7.660;2022-09-09T03:02:00;14.00;91.50
42841;DHT22;28491;46.898;7.660;2022-09-09T03:04:26;14.10;91.60
42841;DHT22;28491;46.898;7.660;2022-09-09T03:06:52;14.00;91.20
42841;DHT22;28491;46.898;7.660;2022-09-09T03:09:17;14.00;93.30
42841;DHT22;28491;46.898;7.660;2022-09-09T03:11:43;14.00;95.10
42841;DHT22;28491;46.898;7.660;2022-09-09T03:14:08;14.00;94.90
42841;DHT22;28491;46.898;7.660;2022-09-09T03:16:36;14.00;93.40
42841;DHT22;28491;46.898;7.660;2022-09-09T03:19:02;13.90;92.30
42841;DHT22;28491;46.898;7.660;2022-09-09T03:21:28;14.00;93.60
42841;DHT22;28491;46.898;7.660;2022-09-09T03:23:53;14.00;94.60
42841;DHT22;28491;46.898;7.660;2022-09-09T03:26:19;14.00;94.30
42841;DHT22;28491;46.898;7.660;2022-09-09T03:28:45;14.00;94.70
42841;DHT22;28491;46.898;7.660;2022-09-09T03:31:11;13.90;94.80
42841;DHT22;28491;46.898;7.660;2022-09-09T03:33:37;13.90;95.10
42841;DHT22;28491;46.898;7.660;2022-09-09T03:36:04;13.90;95.50
42841;DHT22;28491;46.898;7.660;2022-09-09T03:38:29;13.90;96.50
42841;DHT22;28491;46.898;7.660;2022-09-09T03:40:56;13.90;97.10
42841;DHT22;28491;46.898;7.660;2022-09-09T03:43:23;13.80;97.40
42841;DHT22;28491;46.898;7.660;2022-09-09T03:45:49;13.80;98.30
42841;DHT22;28491;46.898;7.660;2022-09-09T03:48:16;13.70;98.50
42841;DHT22;28491;46.898;7.660;2022-09-09T03:50:49;13.70;98.60
42841;DHT22;28491;46.898;7.660;2022-09-09T03:53:16;13.70;98.90
42841;DHT22;28491;46.898;7.660;2022-09-09T03:55:51;13.70;98.90
42841;DHT22;28491;46.898;7.660;2022-09-09T03:58:20;13.80;99.10
42841;DHT22;28491;46.898;7.660;2022-09-09T04:01:13;13.80;98.90
42841;DHT22;28491;46.898;7.660;2022-09-09T04:03:39;13.80;98.90
42841;DHT22;28491;46.898;7.660;2022-09-09T04:06:06;13.70;98.80
42841;DHT22;28491;46.898;7.660;2022-09-09T04:08:33;13.80;99.00
42841;DHT22;28491;46.898;7.660;2022-09-09T04:11:00;13.90;99.00
42841;DHT22;28491;46.898;7.660;2022-09-09T04:13:30;13.80;98.50
42841;DHT22;28491;46.898;7.660;2022-09-09T04:15:58;13.90;98.90
42841;DHT22;28491;46.898;7.660;2022-09-09T04:18:25;13.90;98.70
42841;DHT22;28491;46.898;7.660;2022-09-09T04:20:52;14.00;98.80
42841;DHT22;28491;46.898;7.660;2022-09-09T04:23:19;13.90;98.30
42841;DHT22;28491;46.898;7.660;2022-09-09T04:25:47;14.00;98.60
42841;DHT22;28491;46.898;7.660;2022-09-09T04:28:14;13.90;98.70
42841;DHT22;28491;46.898;7.660;2022-09-09T04:30:40;13.90;99.00
42841;DHT22;28491;46.898;7.660;2022-09-09T04:33:06;14.00;98.60
42841;DHT22;28491;46.898;7.660;2022-09-09T04:35:32;13.90;99.00
42841;DHT22;28491;46.898;7.660;2022-09-09T04:37:57;13.90;99.00
42841;DHT22;28491;46.898;7.660;2022-09-09T04:40:23;13.90;98.90
42841;DHT22;28491;46.898;7.660;2022-09-09T04:42:48;14.00;98.80
42841;DHT22;28491;46.898;7.660;2022-09-09T04:45:15;13.90;98.80
42841;DHT22;28491;46.898;7.660;2022-09-09T04:47:41;14.00;99.10
42841;DHT22;28491;46.898;7.660;2022-09-09T04:50:08;13.80;99.00
42841;DHT22;28491;46.898;7.660;2022-09-09T04:52:36;13.90;99.10
42841;DHT22;28491;46.898;7.660;2022-09-09T04:55:03;14.00;99.10
42841;DHT22;28491;46.898;7.660;2022-09-09T04:57:29;14.00;99.00
42841;DHT22;28491;46.898;7.660;2022-09-09T04:59:57;14.00;99.20
42841;DHT22;28491;46.898;7.660;2022-09-09T05:02:23;14.00;99.30
42841;DHT22;28491;46.898;7.660;2022-09-09T05:04:48;14.00;99.20
42841;DHT22;28491;46.898;7.660;2022-09-09T05:07:15;14.00;99.20
42841;DHT22;28491;46.898;7.660;2022-09-09T05:09:40;14.00;99.30
42841;DHT22;28491;46.898;7.660;2022-09-09T05:12:06;14.00;99.30
42841;DHT22;28491;46.898;7.660;2022-09-09T05:14:32;13.90;99.20
42841;DHT22;28491;46.898;7.660;2022-09-09T05:16:57;14.00;99.00
42841;DHT22;28491;46.898;7.660;2022-09-09T05:19:23;14.00;98.80
42841;DHT22;28491;46.898;7.660;2022-09-09T05:21:49;14.00;99.10
42841;DHT22;28491;46.898;7.660;2022-09-09T05:24:15;14.00;99.20
42841;DHT22;28491;46.898;7.660;2022-09-09T05:26:42;14.10;99.10
42841;DHT22;28491;46.898;7.660;2022-09-09T05:29:08;14.00;98.60
42841;DHT22;28491;46.898;7.660;2022-09-09T05:31:34;14.00;98.80
42841;DHT22;28491;46.898;7.660;2022-09-09T05:34:00;14.10;99.10
42841;DHT22;28491;46.898;7.660;2022-09-09T05:36:25;14.10;98.70
42841;DHT22;28491;46.898;7.660;2022-09-09T05:38:51;14.00;98.40
42841;DHT22;28491;46.898;7.660;2022-09-09T05:41:19;14.10;98.80
42841;DHT22;28491;46.898;7.660;2022-09-09T05:43:46;14.10;98.70
42841;DHT22;28491;46.898;7.660;2022-09-09T05:46:23;14.20;98.80
42841;DHT22;28491;46.898;7.660;2022-09-09T05:48:50;14.30;98.60
42841;DHT22;28491;46.898;7.660;2022-09-09T05:51:24;14.40;97.90
42841;DHT22;28491;46.898;7.660;2022-09-09T05:53:52;14.60;98.10
42841;DHT22;28491;46.898;7.660;2022-09-09T05:56:19;14.80;97.40
42841;DHT22;28491;46.898;7.660;2022-09-09T05:58:46;14.90;96.50
42841;DHT22;28491;46.898;7.660;2022-09-09T06:01:18;15.00;94.90
42841;DHT22;28491;46.898;7.660;2022-09-09T06:03:45;15.30;94.40
42841;DHT22;28491;46.898;7.660;2022-09-09T06:06:19;15.40;93.20
42841;DHT22;28491;46.898;7.660;2022-09-09T06:08:46;17.20;74.90
42841;DHT22;28491;46.898;7.660;2022-09-09T06:11:18;18.60;69.50
42841;DHT22;28491;46.898;7.660;2022-09-09T06:13:44;19.70;65.10
42841;DHT22;28491;46.898;7.660;2022-09-09T06:16:14;20.30;63.30
42841;DHT22;28491;46.898;7.660;2022-09-09T06:18:40;21.00;62.40
42841;DHT22;28491;46.898;7.660;2022-09-09T06:21:09;19.90;63.20
42841;DHT22;28491;46.898;7.660;2022-09-09T06:23:36;18.40;67.00
42841;DHT22;28491;46.898;7.660;2022-09-09T06:26:06;18.70;67.80
42841;DHT22;28491;46.898;7.660;2022-09-09T06:28:33;20.30;63.80
42841;DHT22;28491;46.898;7.660;2022-09-09T06:30:59;21.10;62.90
42841;DHT22;28491;46.898;7.660;2022-09-09T06:33:25;19.40;64.70
42841;DHT22;28491;46.898;7.660;2022-09-09T06:35:52;18.10;69.10
42841;DHT22;28491;46.898;7.660;2022-09-09T06:38:18;17.30;70.50
42841;DHT22;28491;46.898;7.660;2022-09-09T06:40:53;16.60;72.00
42841;DHT22;28491;46.898;7.660;2022-09-09T06:43:23;16.30;75.30
42841;DHT22;28491;46.898;7.660;2022-09-09T06:46:00;16.40;76.70
42841;DHT22;28491;46.898;7.660;2022-09-09T06:48:27;16.20;76.10
42841;DHT22;28491;46.898;7.660;2022-09-09T06:53:27;16.40;76.40
42841;DHT22;28491;46.898;7.660;2022-09-09T06:55:53;16.20;77.40
42841;DHT22;28491;46.898;7.660;2022-09-09T06:58:20;16.00;79.20
42841;DHT22;28491;46.898;7.660;2022-09-09T07:00:47;15.90;79.30
42841;DHT22;28491;46.898;7.660;2022-09-09T07:03:13;15.70;78.90
42841;DHT22;28491;46.898;7.660;2022-09-09T07:05:38;15.90;81.00
42841;DHT22;28491;46.898;7.660;2022-09-09T07:08:04;17.90;74.70
42841;DHT22;28491;46.898;7.660;2022-09-09T07:10:31;19.80;69.90
42841;DHT22;28491;46.898;7.660;2022-09-09T07:12:57;21.20;64.70
42841;DHT22;28491;46.898;7.660;2022-09-09T07:15:22;21.30;63.60
42841;DHT22;28491;46.898;7.660;2022-09-09T07:17:48;20.80;64.10
42841;DHT22;28491;46.898;7.660;2022-09-09T07:20:14;19.70;65.50
42841;DHT22;28491;46.898;7.660;2022-09-09T07:22:40;18.50;66.10
42841;DHT22;28491;46.898;7.660;2022-09-09T07:25:07;19.80;66.50
42841;DHT22;28491;46.898;7.660;2022-09-09T07:27:33;21.10;64.20
42841;DHT22;28491;46.898;7.660;2022-09-09T07:29:58;22.40;62.10
42841;DHT22;28491;46.898;7.660;2022-09-09T07:32:24;23.00;61.60
42841;DHT22;28491;46.898;7.660;2022-09-09T07:34:51;22.40;59.00
42841;DHT22;28491;46.898;7.660;2022-09-09T07:37:17;22.00;62.10
42841;DHT22;28491;46.898;7.660;2022-09-09T07:39:43;21.20;62.40
42841;DHT22;28491;46.898;7.660;2022-09-09T07:42:09;22.10;62.30
42841;DHT22;28491;46.898;7.660;2022-09-09T07:44:36;21.90;60.80
42841;DHT22;28491;46.898;7.660;2022-09-09T07:47:04;22.70;60.30
42841;DHT22;28491;46.898;7.660;2022-09-09T07:49:30;21.20;61.60
42841;DHT22;28491;46.898;7.660;2022-09-09T07:51:57;22.20;61.10
42841;DHT22;28491;46.898;7.660;2022-09-09T07:54:23;21.60;55.60
42841;DHT22;28491;46.898;7.660;2022-09-09T07:56:49;22.20;62.10
42841;DHT22;28491;46.898;7.660;2022-09-09T07:59:15;21.40;62.60
42841;DHT22;28491;46.898;7.660;2022-09-09T08:01:47;21.10;63.80
42841;DHT22;28491;46.898;7.660;2022-09-09T08:04:15;21.40;65.10
42841;DHT22;28491;46.898;7.660;2022-09-09T08:06:45;20.90;62.50
42841;DHT22;28491;46.898;7.660;2022-09-09T08:09:11;20.30;64.70
42841;DHT22;28491;46.898;7.660;2022-09-09T08:11:37;19.80;65.30
42841;DHT22;28491;46.898;7.660;2022-09-09T08:14:04;19.40;67.80
42841;DHT22;28491;46.898;7.660;2022-09-09T08:16:32;19.10;69.90
42841;DHT22;28491;46.898;7.660;2022-09-09T08:18:58;18.70;70.20
42841;DHT22;28491;46.898;7.660;2022-09-09T08:21:26;18.40;72.10
42841;DHT22;28491;46.898;7.660;2022-09-09T08:23:56;18.10;72.40
42841;DHT22;28491;46.898;7.660;2022-09-09T08:26:27;17.70;73.50
42841;DHT22;28491;46.898;7.660;2022-09-09T08:28:56;17.50;75.70
42841;DHT22;28491;46.898;7.660;2022-09-09T08:31:28;17.20;75.80
42841;DHT22;28491;46.898;7.660;2022-09-09T08:33:54;17.00;77.00
42841;DHT22;28491;46.898;7.660;2022-09-09T08:36:22;16.90;80.40
42841;DHT22;28491;46.898;7.660;2022-09-09T08:38:50;16.90;82.80
42841;DHT22;28491;46.898;7.660;2022-09-09T08:44:01;17.10;80.10
42841;DHT22;28491;46.898;7.660;2022-09-09T08:49:23;17.10;83.10
42841;DHT22;28491;46.898;7.660;2022-09-09T08:51:53;17.20;82.10
42841;DHT22;28491;46.898;7.660;2022-09-09T08:54:20;17.70;77.60
42841;DHT22;28491;46.898;7.660;2022-09-09T08:56:47;18.40;77.10
42841;DHT22;28491;46.898;7.660;2022-09-09T08:59:16;18.90;75.30
42841;DHT22;28491;46.898;7.660;2022-09-09T09:02:44;20.80;71.80
42841;DHT22;28491;46.898;7.660;2022-09-09T09:05:09;22.10;67.30
42841;DHT22;28491;46.898;7.660;2022-09-09T09:10:48;23.00;63.10
42841;DHT22;28491;46.898;7.660;2022-09-09T09:13:43;22.30;63.20
42841;DHT22;28491;46.898;7.660;2022-09-09T09:18:53;22.30;64.10
42841;DHT22;28491;46.898;7.660;2022-09-09T09:21:39;22.70;64.20
42841;DHT22;28491;46.898;7.660;2022-09-09T09:26:44;23.00;62.80
42841;DHT22;28491;46.898;7.660;2022-09-09T09:29:15;23.20;63.30
42841;DHT22;28491;46.898;7.660;2022-09-09T09:31:55;23.40;61.80
42841;DHT22;28491;46.898;7.660;2022-09-09T09:34:23;23.50;62.70
42841;DHT22;28491;46.898;7.660;2022-09-09T09:37:00;24.10;62.20
42841;DHT22;28491;46.898;7.660;2022-09-09T09:39:31;23.30;62.00
42841;DHT22;28491;46.898;7.660;2022-09-09T09:42:12;23.30;61.30
42841;DHT22;28491;46.898;7.660;2022-09-09T09:44:39;23.50;63.50
42841;DHT22;28491;46.898;7.660;2022-09-09T09:47:08;23.70;62.30
42841;DHT22;28491;46.898;7.660;2022-09-09T09:49:34;22.90;62.70
42841;DHT22;28491;46.898;7.660;2022-09-09T09:52:01;22.70;62.20
42841;DHT22;28491;46.898;7.660;2022-09-09T09:54:38;21.90;63.20
42841;DHT22;28491;46.898;7.660;2022-09-09T09:57:12;21.30;63.10
42841;DHT22;28491;46.898;7.660;2022-09-09T09:59:38;21.60;63.70
42841;DHT22;28491;46.898;7.660;2022-09-09T10:02:20;22.50;63.20
42841;DHT22;28491;46.898;7.660;2022-09-09T10:04:46;23.50;61.70
42841;DHT22;28491;46.898;7.660;2022-09-09T10:07:19;24.10;61.70
42841;DHT22;28491;46.898;7.660;2022-09-09T10:09:50;24.50;58.10
42841;DHT22;28491;46.898;7.660;2022-09-09T10:17:57;24.50;50.50
42841;DHT22;28491;46.898;7.660;2022-09-09T10:20:54;23.80;59.10
42841;DHT22;28491;46.898;7.660;2022-09-09T10:23:58;22.90;56.80
42841;DHT22;28491;46.898;7.660;2022-09-09T10:26:59;23.60;55.40
42841;DHT22;28491;46.898;7.660;2022-09-09T10:32:40;24.30;50.40
42841;DHT22;28491;46.898;7.660;2022-09-09T10:43:43;25.40;44.80
42841;DHT22;28491;46.898;7.660;2022-09-09T10:46:14;25.20;45.90
42841;DHT22;28491;46.898;7.660;2022-09-09T10:54:38;25.10;45.80
42841;DHT22;28491;46.898;7.660;2022-09-09T11:00:20;24.60;53.30
42841;DHT22;28491;46.898;7.660;2022-09-09T11:05:21;24.50;41.50
42841;DHT22;28491;46.898;7.660;2022-09-09T11:07:59;24.20;47.70
42841;DHT22;28491;46.898;7.660;2022-09-09T11:10:34;23.90;48.00
42841;DHT22;28491;46.898;7.660;2022-09-09T11:13:09;24.00;49.30
42841;DHT22;28491;46.898;7.660;2022-09-09T11:15:49;23.70;44.90
42841;DHT22;28491;46.898;7.660;2022-09-09T11:18:21;24.00;52.60
42841;DHT22;28491;46.898;7.660;2022-09-09T11:20:51;24.10;43.30
42841;DHT22;28491;46.898;7.660;2022-09-09T11:23:30;24.50;48.50
42841;DHT22;28491;46.898;7.660;2022-09-09T11:26:01;24.40;38.90
42841;DHT22;28491;46.898;7.660;2022-09-09T11:29:04;23.80;38.50
42841;DHT22;28491;46.898;7.660;2022-09-09T11:34:51;24.20;37.40
42841;DHT22;28491;46.898;7.660;2022-09-09T11:37:42;24.10;33.50
42841;DHT22;28491;46.898;7.660;2022-09-09T11:40:30;24.20;41.10
42841;DHT22;28491;46.898;7.660;2022-09-09T11:45:53;24.70;34.90
42841;DHT22;28491;46.898;7.660;2022-09-09T11:51:07;24.10;36.80
42841;DHT22;28491;46.898;7.660;2022-09-09T11:53:35;23.30;33.70
42841;DHT22;28491;46.898;7.660;2022-09-09T11:56:13;22.90;32.50
42841;DHT22;28491;46.898;7.660;2022-09-09T11:59:19;22.50;34.90
42841;DHT22;28491;46.898;7.660;2022-09-09T12:01:44;22.40;36.70
42841;DHT22;28491;46.898;7.660;2022-09-09T12:06:55;22.10;38.10
42841;DHT22;28491;46.898;7.660;2022-09-09T12:09:32;22.10;38.70
42841;DHT22;28491;46.898;7.660;2022-09-09T12:14:44;21.90;36.20
42841;DHT22;28491;46.898;7.660;2022-09-09T12:17:20;21.80;33.10
42841;DHT22;28491;46.898;7.660;2022-09-09T12:19:47;21.70;33.70
42841;DHT22;28491;46.898;7.660;2022-09-09T12:31:22;23.50;29.90
42841;DHT22;28491;46.898;7.660;2022-09-09T12:33:23;24.00;31.40
42841;DHT22;28491;46.898;7.660;2022-09-09T12:35:59;24.10;28.90
42841;DHT22;28491;46.898;7.660;2022-09-09T12:38:32;24.10;27.80
42841;DHT22;28491;46.898;7.660;2022-09-09T12:40:59;24.00;27.80
42841;DHT22;28491;46.898;7.660;2022-09-09T12:43:27;23.90;26.20
42841;DHT22;28491;46.898;7.660;2022-09-09T12:46:09;23.90;25.80
42841;DHT22;28491;46.898;7.660;2022-09-09T12:48:44;23.90;27.00
42841;DHT22;28491;46.898;7.660;2022-09-09T12:51:21;24.00;25.30
42841;DHT22;28491;46.898;7.660;2022-09-09T12:53:49;23.90;25.60
42841;DHT22;28491;46.898;7.660;2022-09-09T12:56:33;23.90;26.10
42841;DHT22;28491;46.898;7.660;2022-09-09T12:59:01;24.00;24.50
42841;DHT22;28491;46.898;7.660;2022-09-09T13:01:28;24.10;25.40
42841;DHT22;28491;46.898;7.660;2022-09-09T13:03:55;24.10;25.30
42841;DHT22;28491;46.898;7.660;2022-09-09T13:06:23;24.10;26.30
42841;DHT22;28491;46.898;7.660;2022-09-09T13:08:50;24.20;25.10
42841;DHT22;28491;46.898;7.660;2022-09-09T13:11:21;24.00;24.50
42841;DHT22;28491;46.898;7.660;2022-09-09T13:13:52;24.10;26.70
42841;DHT22;28491;46.898;7.660;2022-09-09T13:18:46;24.00;25.90
42841;DHT22;28491;46.898;7.660;2022-09-09T13:21:12;23.90;25.70
42841;DHT22;28491;46.898;7.660;2022-09-09T13:23:39;23.90;25.10
42841;DHT22;28491;46.898;7.660;2022-09-09T13:26:25;24.00;26.00
42841;DHT22;28491;46.898;7.660;2022-09-09T13:28:52;24.00;25.10
42841;DHT22;28491;46.898;7.660;2022-09-09T13:31:29;24.00;25.10
42841;DHT22;28491;46.898;7.660;2022-09-09T13:33:55;24.20;25.70
42841;DHT22;28491;46.898;7.660;2022-09-09T13:36:32;24.10;25.70
42841;DHT22;28491;46.898;7.660;2022-09-09T13:39:00;24.00;24.00
42841;DHT22;28491;46.898;7.660;2022-09-09T13:41:33;23.90;24.00
42841;DHT22;28491;46.898;7.660;2022-09-09T13:44:00;23.90;24.60
42841;DHT22;28491;46.898;7.660;2022-09-09T13:46:41;23.90;24.00
42841;DHT22;28491;46.898;7.660;2022-09-09T13:51:45;23.80;22.90
42841;DHT22;28491;46.898;7.660;2022-09-09T13:54:14;23.80;23.70
42841;DHT22;28491;46.898;7.660;2022-09-09T13:56:41;23.90;24.10
42841;DHT22;28491;46.898;7.660;2022-09-09T13:59:18;23.90;22.50
42841;DHT22;28491;46.898;7.660;2022-09-09T14:01:45;23.80;23.20
42841;DHT22;28491;46.898;7.660;2022-09-09T14:04:11;23.80;24.20
42841;DHT22;28491;46.898;7.660;2022-09-09T14:06:37;23.80;23.30
42841;DHT22;28491;46.898;7.660;2022-09-09T14:09:05;23.80;22.40
42841;DHT22;28491;46.898;7.660;2022-09-09T14:11:31;23.70;21.80
42841;DHT22;28491;46.898;7.660;2022-09-09T14:13:57;23.60;22.30
42841;DHT22;28491;46.898;7.660;2022-09-09T14:16:22;23.60;23.10
42841;DHT22;28491;46.898;7.660;2022-09-09T14:18:48;23.50;24.80
42841;DHT22;28491;46.898;7.660;2022-09-09T14:21:14;23.50;25.10
42841;DHT22;28491;46.898;7.660;2022-09-09T14:23:41;23.40;24.80
42841;DHT22;28491;46.898;7.660;2022-09-09T14:26:07;23.50;26.40
42841;DHT22;28491;46.898;7.660;2022-09-09T14:28:33;23.50;24.70
42841;DHT22;28491;46.898;7.660;2022-09-09T14:31:00;23.50;28.00
42841;DHT22;28491;46.898;7.660;2022-09-09T14:33:26;23.50;24.70
42841;DHT22;28491;46.898;7.660;2022-09-09T14:35:58;23.30;25.70
42841;DHT22;28491;46.898;7.660;2022-09-09T14:38:25;23.10;25.60
42841;DHT22;28491;46.898;7.660;2022-09-09T14:40:50;23.00;25.70
42841;DHT22;28491;46.898;7.660;2022-09-09T14:43:17;23.10;25.60
42841;DHT22;28491;46.898;7.660;2022-09-09T14:45:42;23.10;25.60
42841;DHT22;28491;46.898;7.660;2022-09-09T14:48:08;23.00;22.50
42841;DHT22;28491;46.898;7.660;2022-09-09T14:50:34;22.90;23.70
42841;DHT22;28491;46.898;7.660;2022-09-09T14:53:02;22.90;23.10
42841;DHT22;28491;46.898;7.660;2022-09-09T14:55:27;22.80;22.60
42841;DHT22;28491;46.898;7.660;2022-09-09T14:57:54;22.70;22.60
42841;DHT22;28491;46.898;7.660;2022-09-09T15:00:20;22.70;22.00
42841;DHT22;28491;46.898;7.660;2022-09-09T15:02:45;22.60;24.40
42841;DHT22;28491;46.898;7.660;2022-09-09T15:05:11;22.60;23.30
42841;DHT22;28491;46.898;7.660;2022-09-09T15:07:36;22.50;22.90
42841;DHT22;28491;46.898;7.660;2022-09-09T15:10:03;22.60;23.80
42841;DHT22;28491;46.898;7.660;2022-09-09T15:12:29;22.50;24.90
42841;DHT22;28491;46.898;7.660;2022-09-09T15:14:55;22.40;25.60
42841;DHT22;28491;46.898;7.660;2022-09-09T15:17:21;22.50;23.60
42841;DHT22;28491;46.898;7.660;2022-09-09T15:19:47;22.40;22.90
42841;DHT22;28491;46.898;7.660;2022-09-09T15:22:12;22.30;22.50
42841;DHT22;28491;46.898;7.660;2022-09-09T15:24:38;22.20;23.20
42841;DHT22;28491;46.898;7.660;2022-09-09T15:27:03;22.10;22.70
42841;DHT22;28491;46.898;7.660;2022-09-09T15:29:29;22.00;23.70
42841;DHT22;28491;46.898;7.660;2022-09-09T15:31:55;22.00;23.70
42841;DHT22;28491;46.898;7.660;2022-09-09T15:34:21;21.80;24.10
42841;DHT22;28491;46.898;7.660;2022-09-09T15:36:46;21.80;24.30
42841;DHT22;28491;46.898;7.660;2022-09-09T15:39:14;21.80;24.40
42841;DHT22;28491;46.898;7.660;2022-09-09T15:41:45;21.80;26.40
42841;DHT22;28491;46.898;7.660;2022-09-09T15:44:12;21.90;23.90
42841;DHT22;28491;46.898;7.660;2022-09-09T15:46:46;21.60;23.70
42841;DHT22;28491;46.898;7.660;2022-09-09T15:49:19;21.40;24.90
42841;DHT22;28491;46.898;7.660;2022-09-09T15:51:47;21.00;22.20
42841;DHT22;28491;46.898;7.660;2022-09-09T15:54:17;20.90;23.30
42841;DHT22;28491;46.898;7.660;2022-09-09T15:56:44;20.60;24.10
42841;DHT22;28491;46.898;7.660;2022-09-09T15:59:10;20.40;27.60
42841;DHT22;28491;46.898;7.660;2022-09-09T16:01:37;20.10;31.10
42841;DHT22;28491;46.898;7.660;2022-09-09T16:04:04;20.00;31.80
42841;DHT22;28491;46.898;7.660;2022-09-09T16:06:30;19.80;33.40
42841;DHT22;28491;46.898;7.660;2022-09-09T16:08:57;19.70;29.50
42841;DHT22;28491;46.898;7.660;2022-09-09T16:11:26;19.70;28.20
42841;DHT22;28491;46.898;7.660;2022-09-09T16:13:53;19.80;27.40
42841;DHT22;28491;46.898;7.660;2022-09-09T16:16:21;19.60;29.50
42841;DHT22;28491;46.898;7.660;2022-09-09T16:18:49;19.70;28.60
42841;DHT22;28491;46.898;7.660;2022-09-09T16:21:28;19.60;32.20
42841;DHT22;28491;46.898;7.660;2022-09-09T16:23:58;19.60;30.50
42841;DHT22;28491;46.898;7.660;2022-09-09T16:26:24;19.70;32.80
42841;DHT22;28491;46.898;7.660;2022-09-09T16:28:50;19.60;33.90
42841;DHT22;28491;46.898;7.660;2022-09-09T16:31:19;19.60;35.10
42841;DHT22;28491;46.898;7.660;2022-09-09T16:33:45;19.60;35.10
42841;DHT22;28491;46.898;7.660;2022-09-09T16:36:22;19.60;38.50
42841;DHT22;28491;46.898;7.660;2022-09-09T16:38:51;19.50;40.40
42841;DHT22;28491;46.898;7.660;2022-09-09T16:41:17;19.40;39.60
42841;DHT22;28491;46.898;7.660;2022-09-09T16:43:42;19.40;42.70
42841;DHT22;28491;46.898;7.660;2022-09-09T16:46:19;19.30;42.20
42841;DHT22;28491;46.898;7.660;2022-09-09T16:48:46;19.30;41.10
42841;DHT22;28491;46.898;7.660;2022-09-09T16:51:15;19.20;42.90
42841;DHT22;28491;46.898;7.660;2022-09-09T16:53:41;19.10;43.50
42841;DHT22;28491;46.898;7.660;2022-09-09T16:56:10;19.00;38.30
42841;DHT22;28491;46.898;7.660;2022-09-09T16:58:36;18.80;40.10
42841;DHT22;28491;46.898;7.660;2022-09-09T17:01:03;18.80;40.00
42841;DHT22;28491;46.898;7.660;2022-09-09T17:03:29;18.60;41.80
42841;DHT22;28491;46.898;7.660;2022-09-09T17:05:55;18.50;45.50
42841;DHT22;28491;46.898;7.660;2022-09-09T17:08:20;18.40;50.50
42841;DHT22;28491;46.898;7.660;2022-09-09T17:10:46;18.30;61.40
42841;DHT22;28491;46.898;7.660;2022-09-09T17:13:13;18.10;64.30
42841;DHT22;28491;46.898;7.660;2022-09-09T17:15:41;17.90;62.60
42841;DHT22;28491;46.898;7.660;2022-09-09T17:18:11;17.70;63.90
42841;DHT22;28491;46.898;7.660;2022-09-09T17:20:38;17.60;63.50
42841;DHT22;28491;46.898;7.660;2022-09-09T17:23:05;17.60;63.40
42841;DHT22;28491;46.898;7.660;2022-09-09T17:25:30;17.50;63.80
42841;DHT22;28491;46.898;7.660;2022-09-09T17:27:56;17.40;64.40
42841;DHT22;28491;46.898;7.660;2022-09-09T17:30:23;17.30;64.20